Susquehanna — WDD9976 — position and weather

sailwx.info

Track history (hours):
 
Tides and Currents Weather Stations Pressure Air Temp Water Temp Dewpoint Dewpoint Depression Visibility Wind Speed Wind Dir Waves Ship Positions

Susquehanna

Owner: Vane Line Bunkering, Inc., Baltimore, MD. More information available from US FCC via Universal Licensing System and Coast Guard Vessel Documentation Center.

Last reported at 2017-Feb-21 18:33 UTC. Time now 2017-Feb-21 19:07 UTC.
Position N 39°51' W 075°14'.

Length 28 m; draft 4.2 m.

Type: Tug. MMSI: 367318750.

Date/timePositionNaut miles runAvg speedWind from/ knotsBaromVisibWave heightAir tempDewpointWater temp
2017-Feb-21 18:33N 39°51' W 075°14'0 0.0
2017-Feb-21 17:33N 39°51' W 075°14'0 0.0
2017-Feb-21 16:33N 39°51' W 075°14'0 0.1
2017-Feb-21 15:33N 39°52' W 075°14'0 0.1
2017-Feb-21 14:33N 39°52' W 075°14'0 0.0
2017-Feb-21 13:33N 39°52' W 075°14'0 0.0
2017-Feb-21 12:33N 39°52' W 075°14'5 4.6
2017-Feb-21 11:33N 39°54' W 075°08'3 2.8
2017-Feb-21 10:33N 39°53' W 075°12'3 2.6
2017-Feb-21 09:33N 39°54' W 075°09'3 2.9
2017-Feb-21 08:33N 39°54' W 075°12'5 5.1
2017-Feb-21 07:33N 39°51' W 075°18'6 6.2
2017-Feb-21 06:33N 39°48' W 075°25'0 0.0
2017-Feb-21 05:34N 39°48' W 075°25'10 9.9
2017-Feb-21 04:33N 39°52' W 075°13'4 4.0
2017-Feb-21 03:33N 39°54' W 075°08'0 0.0
2017-Feb-21 02:33N 39°54' W 075°08'0 0.0
2017-Feb-21 01:33N 39°54' W 075°08'0 0.0
2017-Feb-21 00:33N 39°54' W 075°08'1 0.7
2017-Feb-20 23:33N 39°53' W 075°08'6 6.4
2017-Feb-20 22:34N 39°51' W 075°16'3 2.7
2017-Feb-20 21:33N 39°52' W 075°13'4 3.9
2017-Feb-20 20:33N 39°54' W 075°08'0 0.0
2017-Feb-20 19:33N 39°54' W 075°08'0 0.0
2017-Feb-20 18:33N 39°54' W 075°08'3 3.1
2017-Feb-20 17:33N 39°54' W 075°12'3 2.6
2017-Feb-20 16:33N 39°51' W 075°14'2 2.3
2017-Feb-20 15:33N 39°53' W 075°12'1 0.8
2017-Feb-20 14:33N 39°54' W 075°12'4 3.5
2017-Feb-20 13:20N 39°51' W 075°17'7 8.9
2017-Feb-20 12:33N 39°48' W 075°25'4 3.7
2017-Feb-20 11:33N 39°50' W 075°21'6 6.4
2017-Feb-20 10:33N 39°52' W 075°13'3 2.9
2017-Feb-20 09:33N 39°53' W 075°09'2 2.5
2017-Feb-20 08:33N 39°54' W 075°12'0 0.0
2017-Feb-20 07:33N 39°54' W 075°12'2 1.9
2017-Feb-20 06:33N 39°53' W 075°10'2 1.5
2017-Feb-20 05:26N 39°54' W 075°08'0 0.0
2017-Feb-20 04:33N 39°54' W 075°08'0 0.0
2017-Feb-20 03:33N 39°54' W 075°08'0 0.0
2017-Feb-20 02:33N 39°54' W 075°08'0 0.0
2017-Feb-20 01:33N 39°54' W 075°08'0 0.0
2017-Feb-20 00:33N 39°54' W 075°08'0 0.0
2017-Feb-19 23:33N 39°54' W 075°08'0 0.0
2017-Feb-19 22:33N 39°54' W 075°08'0 0.2
2017-Feb-19 21:33N 39°54' W 075°08'0 0.0
2017-Feb-19 20:33N 39°54' W 075°08'0 0.0
2017-Feb-19 19:33N 39°54' W 075°08'0 0.0
2017-Feb-19 18:33N 39°54' W 075°08'0 0.0
2017-Feb-19 17:33N 39°54' W 075°08'0 0.0
2017-Feb-19 16:33N 39°54' W 075°08'0 0.0
2017-Feb-19 15:33N 39°54' W 075°08'5 5.4
2017-Feb-19 14:33N 39°59' W 075°05'1 0.5
2017-Feb-19 13:33N 39°59' W 075°04'0 0.0
2017-Feb-19 12:33N 39°59' W 075°04'0 0.0
2017-Feb-19 11:33N 39°59' W 075°04'0 0.0
2017-Feb-19 10:33N 39°59' W 075°04'0 0.0
2017-Feb-19 09:33N 39°59' W 075°04'0 0.0
2017-Feb-19 08:34N 39°59' W 075°04'2 1.8
2017-Feb-19 07:33N 39°58' W 075°06'7 6.9
2017-Feb-19 06:33N 39°53' W 075°12'1 0.9
2017-Feb-19 05:33N 39°54' W 075°12'0 0.0
2017-Feb-19 04:33N 39°54' W 075°12'0 0.0
2017-Feb-19 03:33N 39°54' W 075°12'0 0.0
2017-Feb-19 02:34N 39°54' W 075°12'0 0.0
2017-Feb-19 01:33N 39°54' W 075°12'0 0.0
2017-Feb-19 00:34N 39°54' W 075°12'0 0.0
2017-Feb-18 23:34N 39°54' W 075°12'0 0.0
2017-Feb-18 22:33N 39°54' W 075°12'0 0.0
2017-Feb-18 21:33N 39°54' W 075°12'0 0.0
2017-Feb-18 20:33N 39°54' W 075°12'0 0.0
2017-Feb-18 19:33N 39°54' W 075°12'0 0.0
2017-Feb-18 18:34N 39°54' W 075°12'0 0.0
2017-Feb-18 17:33N 39°54' W 075°12'0 0.0
2017-Feb-18 16:33N 39°54' W 075°12'0 0.0
2017-Feb-18 15:33N 39°54' W 075°12'0 0.0
2017-Feb-18 14:34N 39°54' W 075°12'0 0.0
2017-Feb-18 13:33N 39°54' W 075°12'0 0.0
2017-Feb-18 12:33N 39°54' W 075°12'0 0.0
2017-Feb-18 11:33N 39°54' W 075°12'4 3.9
2017-Feb-18 10:33N 39°51' W 075°16'9 9.3
2017-Feb-18 09:34N 39°47' W 075°27'1111.2
2017-Feb-18 08:33N 39°38' W 075°35'1110.9
2017-Feb-18 07:33N 39°27' W 075°33'1211.7
2017-Feb-18 06:34N 39°18' W 075°23'1211.1
2017-Feb-18 05:28N 39°08' W 075°14'1011.3
2017-Feb-18 04:33N 38°59' W 075°08'64 7.1
2017-Feb-17 19:33N 39°40' W 074°04'9 8.7
2017-Feb-17 18:31N 39°48' W 074°00'42 8.5
2017-Feb-17 13:33N 40°31' W 073°59'9 8.5
2017-Feb-17 12:33N 40°38' W 074°04'2 2.1
2017-Feb-17 11:33N 40°39' W 074°07'0 0.0
2017-Feb-17 10:33N 40°39' W 074°07'0 0.0
2017-Feb-17 09:33N 40°39' W 074°07'0 0.0
2017-Feb-17 08:33N 40°39' W 074°07'0 0.0
2017-Feb-17 07:33N 40°39' W 074°07'0 0.0
2017-Feb-17 06:33N 40°39' W 074°07'0 0.0
2017-Feb-17 05:34N 40°39' W 074°07'0 0.0
2017-Feb-17 04:33N 40°39' W 074°07'0 0.0
2017-Feb-17 03:33N 40°39' W 074°07'0 0.0
2017-Feb-17 02:33N 40°39' W 074°07'0 0.0
2017-Feb-17 01:33N 40°39' W 074°07'0 0.0
2017-Feb-17 00:33N 40°39' W 074°07'3 3.2
2017-Feb-16 23:33N 40°37' W 074°03'4 4.2
2017-Feb-16 22:33N 40°33' W 074°02'6 5.5
2017-Feb-16 21:33N 40°30' W 073°56'6 6.3
2017-Feb-16 20:32N 40°24' W 073°54'37 7.3
2017-Feb-16 15:30N 39°47' W 074°01'7 7.6
2017-Feb-16 14:33N 39°40' W 074°04'10 7.9
2017-Feb-16 13:14N 39°31' W 074°10'54 5.1
2017-Feb-16 02:28N 39°08' W 075°14'8 8.4
2017-Feb-16 01:33N 39°15' W 075°19'1010.5
2017-Feb-16 00:33N 39°23' W 075°28'10 9.5
2017-Feb-15 23:33N 39°32' W 075°33'2 2.0
2017-Feb-15 22:33N 39°34' W 075°33'7 7.1
2017-Feb-15 21:34N 39°41' W 075°31'8 7.8
2017-Feb-15 20:33N 39°48' W 075°27'7 6.7
2017-Feb-15 19:33N 39°51' W 075°19'6 6.1
2017-Feb-15 18:33N 39°53' W 075°12'2 1.7
2017-Feb-15 17:34N 39°53' W 075°09'2 2.4
2017-Feb-15 16:34N 39°54' W 075°12'0 0.0
2017-Feb-15 15:33N 39°54' W 075°12'0 0.0
2017-Feb-15 14:34N 39°54' W 075°12'1 1.0
2017-Feb-15 13:33N 39°55' W 075°13'4 3.6
2017-Feb-15 12:33N 39°54' W 075°08'3 3.1
2017-Feb-15 11:33N 39°54' W 075°12'1 1.2
2017-Feb-15 10:34N 39°52' W 075°12'1 1.1
2017-Feb-15 09:31N 39°54' W 075°12'0 0.0
2017-Feb-15 08:31N 39°54' W 075°12'0 0.0
2017-Feb-15 07:32N 39°54' W 075°12'0 0.0
2017-Feb-15 06:33N 39°54' W 075°12'0 0.0
2017-Feb-15 05:33N 39°54' W 075°12'0 0.0
2017-Feb-15 04:31N 39°54' W 075°12'0 0.0
2017-Feb-15 03:29N 39°54' W 075°12'0 0.0
2017-Feb-15 02:32N 39°54' W 075°12'0 0.0
2017-Feb-15 01:33N 39°54' W 075°12'4 4.0
2017-Feb-15 00:33N 39°56' W 075°08'4 3.4
2017-Feb-14 23:31N 39°59' W 075°05'0 0.0
2017-Feb-14 22:32N 39°59' W 075°05'0 0.0
2017-Feb-14 21:33N 39°59' W 075°05'0 0.0
2017-Feb-14 20:33N 39°59' W 075°05'1 0.9
2017-Feb-14 19:33N 39°59' W 075°04'6 5.7
2017-Feb-14 18:33N 39°54' W 075°08'3 3.4
2017-Feb-14 17:33N 39°54' W 075°12'0 0.0
2017-Feb-14 16:32N 39°54' W 075°12'0 0.0
2017-Feb-14 15:30N 39°54' W 075°12'0 0.0
2017-Feb-14 14:33N 39°54' W 075°12'0 0.0
2017-Feb-14 13:34N 39°54' W 075°12'2 2.1
2017-Feb-14 12:34N 39°53' W 075°10'7 6.7
2017-Feb-14 11:34N 39°51' W 075°18'5 5.2
2017-Feb-14 10:34N 39°49' W 075°24'3 3.2
2017-Feb-14 09:34N 39°51' W 075°21'7 7.2
2017-Feb-14 08:34N 39°54' W 075°12'0 0.0
2017-Feb-14 07:33N 39°54' W 075°12'0 0.0
2017-Feb-14 06:33N 39°54' W 075°12'0 0.0
2017-Feb-14 05:31N 39°54' W 075°12'0 0.0
2017-Feb-14 04:32N 39°54' W 075°12'4 3.9
2017-Feb-14 03:33N 39°55' W 075°08'4 4.1
2017-Feb-14 02:33N 39°59' W 075°05'1 0.5
2017-Feb-14 01:33N 39°59' W 075°05'6 5.9
2017-Feb-14 00:33N 39°53' W 075°08'2 2.4
2017-Feb-13 23:32N 39°53' W 075°12'0 0.0
2017-Feb-13 22:33N 39°53' W 075°12'0 0.1
2017-Feb-13 21:33N 39°53' W 075°12'0 0.5
2017-Feb-13 20:33N 39°54' W 075°12'5 5.5
2017-Feb-13 19:33N 39°51' W 075°18'6 5.7
2017-Feb-13 18:34N 39°48' W 075°25'1 0.8
2017-Feb-13 17:33N 39°49' W 075°24'0 0.3
2017-Feb-13 16:34N 39°48' W 075°24'5 4.6
2017-Feb-13 15:33N 39°51' W 075°19'6 5.6
2017-Feb-13 14:34N 39°54' W 075°12'0 0.1
2017-Feb-13 13:33N 39°54' W 075°12'1 1.4
2017-Feb-13 12:33N 39°55' W 075°12'0 0.0
2017-Feb-13 11:31N 39°55' W 075°12'1 0.8
2017-Feb-13 10:31N 39°55' W 075°13'4 3.6
2017-Feb-13 09:31N 39°54' W 075°08'0 0.0
2017-Feb-13 08:33N 39°54' W 075°08'0 0.1
2017-Feb-13 07:30N 39°54' W 075°08'0 0.0
2017-Feb-13 06:34N 39°54' W 075°08'0 0.1
2017-Feb-13 05:33N 39°54' W 075°08'0 0.0
2017-Feb-13 04:31N 39°54' W 075°08'0 0.0
2017-Feb-13 03:31N 39°54' W 075°08'0 0.0
2017-Feb-13 02:32N 39°54' W 075°08'0 0.4
2017-Feb-13 01:33N 39°53' W 075°08'3 2.6
2017-Feb-13 00:34N 39°53' W 075°12'0 0.5
2017-Feb-12 23:33N 39°54' W 075°12'1 1.1
2017-Feb-12 22:33N 39°55' W 075°13'0 0.0
2017-Feb-12 21:28N 39°55' W 075°13'0 0.0
2017-Feb-12 20:31N 39°55' W 075°13'0 0.0
2017-Feb-12 19:32N 39°55' W 075°13'1 1.1
2017-Feb-12 18:32N 39°54' W 075°12'0 0.0
2017-Feb-12 17:33N 39°54' W 075°12'0 0.1
2017-Feb-12 16:34N 39°54' W 075°12'0 0.2
2017-Feb-12 15:33N 39°54' W 075°12'0 0.1
2017-Feb-12 14:34N 39°54' W 075°12'0 0.0
2017-Feb-12 13:31N 39°54' W 075°12'0 0.0
2017-Feb-12 12:29N 39°54' W 075°12'0 0.0
2017-Feb-12 11:33N 39°54' W 075°12'0 0.0
2017-Feb-12 10:30N 39°54' W 075°12'0 0.0
2017-Feb-12 09:31N 39°54' W 075°12'0 0.0
2017-Feb-12 08:32N 39°54' W 075°12'0 0.0
2017-Feb-12 07:32N 39°54' W 075°12'0 0.0
2017-Feb-12 06:33N 39°54' W 075°12'0 0.0
2017-Feb-12 05:31N 39°54' W 075°12'0 0.0
2017-Feb-12 04:31N 39°54' W 075°12'0 0.0
2017-Feb-12 03:29N 39°54' W 075°12'0 0.0
2017-Feb-12 02:33N 39°54' W 075°12'0 0.0
2017-Feb-12 01:30N 39°54' W 075°12'0 0.0
2017-Feb-12 00:25N 39°54' W 075°12'0 0.0
2017-Feb-11 23:29N 39°54' W 075°12'0 0.0
2017-Feb-11 22:32N 39°54' W 075°12'0 0.0
2017-Feb-11 21:30N 39°54' W 075°12'0 0.0
2017-Feb-11 20:28N 39°54' W 075°12'0 0.0
2017-Feb-11 19:31N 39°54' W 075°12'  
Track history (hours):
 
Tides and Currents Weather Stations Pressure Air Temp Water Temp Dewpoint Dewpoint Depression Visibility Wind Speed Wind Dir Waves Ship Positions

Susquehanna

Owner: Vane Line Bunkering, Inc., Baltimore, MD. More information available from US FCC via Universal Licensing System and Coast Guard Vessel Documentation Center.

Last reported at 2017-Feb-21 18:33 UTC. Time now 2017-Feb-21 19:07 UTC.
Position N 39°51' W 075°14'.

Length 28 m; draft 4.2 m.

Type: Tug. MMSI: 367318750.

Date/timePositionNaut miles runAvg speedWind from/ knotsBaromVisibWave heightAir tempDewpointWater temp
2017-Feb-21 18:33N 39°51' W 075°14'0 0.0
2017-Feb-21 17:33N 39°51' W 075°14'0 0.0
2017-Feb-21 16:33N 39°51' W 075°14'0 0.1
2017-Feb-21 15:33N 39°52' W 075°14'0 0.1
2017-Feb-21 14:33N 39°52' W 075°14'0 0.0
2017-Feb-21 13:33N 39°52' W 075°14'0 0.0
2017-Feb-21 12:33N 39°52' W 075°14'5 4.6
2017-Feb-21 11:33N 39°54' W 075°08'3 2.8
2017-Feb-21 10:33N 39°53' W 075°12'3 2.6
2017-Feb-21 09:33N 39°54' W 075°09'3 2.9
2017-Feb-21 08:33N 39°54' W 075°12'5 5.1
2017-Feb-21 07:33N 39°51' W 075°18'6 6.2
2017-Feb-21 06:33N 39°48' W 075°25'0 0.0
2017-Feb-21 05:34N 39°48' W 075°25'10 9.9
2017-Feb-21 04:33N 39°52' W 075°13'4 4.0
2017-Feb-21 03:33N 39°54' W 075°08'0 0.0
2017-Feb-21 02:33N 39°54' W 075°08'0 0.0
2017-Feb-21 01:33N 39°54' W 075°08'0 0.0
2017-Feb-21 00:33N 39°54' W 075°08'1 0.7
2017-Feb-20 23:33N 39°53' W 075°08'6 6.4
2017-Feb-20 22:34N 39°51' W 075°16'3 2.7
2017-Feb-20 21:33N 39°52' W 075°13'4 3.9
2017-Feb-20 20:33N 39°54' W 075°08'0 0.0
2017-Feb-20 19:33N 39°54' W 075°08'0 0.0
2017-Feb-20 18:33N 39°54' W 075°08'3 3.1
2017-Feb-20 17:33N 39°54' W 075°12'3 2.6
2017-Feb-20 16:33N 39°51' W 075°14'2 2.3
2017-Feb-20 15:33N 39°53' W 075°12'1 0.8
2017-Feb-20 14:33N 39°54' W 075°12'4 3.5
2017-Feb-20 13:20N 39°51' W 075°17'7 8.9
2017-Feb-20 12:33N 39°48' W 075°25'4 3.7
2017-Feb-20 11:33N 39°50' W 075°21'6 6.4
2017-Feb-20 10:33N 39°52' W 075°13'3 2.9
2017-Feb-20 09:33N 39°53' W 075°09'2 2.5
2017-Feb-20 08:33N 39°54' W 075°12'0 0.0
2017-Feb-20 07:33N 39°54' W 075°12'2 1.9
2017-Feb-20 06:33N 39°53' W 075°10'2 1.5
2017-Feb-20 05:26N 39°54' W 075°08'0 0.0
2017-Feb-20 04:33N 39°54' W 075°08'0 0.0
2017-Feb-20 03:33N 39°54' W 075°08'0 0.0
2017-Feb-20 02:33N 39°54' W 075°08'0 0.0
2017-Feb-20 01:33N 39°54' W 075°08'0 0.0
2017-Feb-20 00:33N 39°54' W 075°08'0 0.0
2017-Feb-19 23:33N 39°54' W 075°08'0 0.0
2017-Feb-19 22:33N 39°54' W 075°08'0 0.2
2017-Feb-19 21:33N 39°54' W 075°08'0 0.0
2017-Feb-19 20:33N 39°54' W 075°08'0 0.0
2017-Feb-19 19:33N 39°54' W 075°08'0 0.0
2017-Feb-19 18:33N 39°54' W 075°08'0 0.0
2017-Feb-19 17:33N 39°54' W 075°08'0 0.0
2017-Feb-19 16:33N 39°54' W 075°08'0 0.0
2017-Feb-19 15:33N 39°54' W 075°08'5 5.4
2017-Feb-19 14:33N 39°59' W 075°05'1 0.5
2017-Feb-19 13:33N 39°59' W 075°04'0 0.0
2017-Feb-19 12:33N 39°59' W 075°04'0 0.0
2017-Feb-19 11:33N 39°59' W 075°04'0 0.0
2017-Feb-19 10:33N 39°59' W 075°04'0 0.0
2017-Feb-19 09:33N 39°59' W 075°04'0 0.0
2017-Feb-19 08:34N 39°59' W 075°04'2 1.8
2017-Feb-19 07:33N 39°58' W 075°06'7 6.9
2017-Feb-19 06:33N 39°53' W 075°12'1 0.9
2017-Feb-19 05:33N 39°54' W 075°12'0 0.0
2017-Feb-19 04:33N 39°54' W 075°12'0 0.0
2017-Feb-19 03:33N 39°54' W 075°12'0 0.0
2017-Feb-19 02:34N 39°54' W 075°12'0 0.0
2017-Feb-19 01:33N 39°54' W 075°12'0 0.0
2017-Feb-19 00:34N 39°54' W 075°12'0 0.0
2017-Feb-18 23:34N 39°54' W 075°12'0 0.0
2017-Feb-18 22:33N 39°54' W 075°12'0 0.0
2017-Feb-18 21:33N 39°54' W 075°12'0 0.0
2017-Feb-18 20:33N 39°54' W 075°12'0 0.0
2017-Feb-18 19:33N 39°54' W 075°12'0 0.0
2017-Feb-18 18:34N 39°54' W 075°12'0 0.0
2017-Feb-18 17:33N 39°54' W 075°12'0 0.0
2017-Feb-18 16:33N 39°54' W 075°12'0 0.0
2017-Feb-18 15:33N 39°54' W 075°12'0 0.0
2017-Feb-18 14:34N 39°54' W 075°12'0 0.0
2017-Feb-18 13:33N 39°54' W 075°12'0 0.0
2017-Feb-18 12:33N 39°54' W 075°12'0 0.0
2017-Feb-18 11:33N 39°54' W 075°12'4 3.9
2017-Feb-18 10:33N 39°51' W 075°16'9 9.3
2017-Feb-18 09:34N 39°47' W 075°27'1111.2
2017-Feb-18 08:33N 39°38' W 075°35'1110.9
2017-Feb-18 07:33N 39°27' W 075°33'1211.7
2017-Feb-18 06:34N 39°18' W 075°23'1211.1
2017-Feb-18 05:28N 39°08' W 075°14'1011.3
2017-Feb-18 04:33N 38°59' W 075°08'64 7.1
2017-Feb-17 19:33N 39°40' W 074°04'9 8.7
2017-Feb-17 18:31N 39°48' W 074°00'42 8.5
2017-Feb-17 13:33N 40°31' W 073°59'9 8.5
2017-Feb-17 12:33N 40°38' W 074°04'2 2.1
2017-Feb-17 11:33N 40°39' W 074°07'0 0.0
2017-Feb-17 10:33N 40°39' W 074°07'0 0.0
2017-Feb-17 09:33N 40°39' W 074°07'0 0.0
2017-Feb-17 08:33N 40°39' W 074°07'0 0.0
2017-Feb-17 07:33N 40°39' W 074°07'0 0.0
2017-Feb-17 06:33N 40°39' W 074°07'0 0.0
2017-Feb-17 05:34N 40°39' W 074°07'0 0.0
2017-Feb-17 04:33N 40°39' W 074°07'0 0.0
2017-Feb-17 03:33N 40°39' W 074°07'0 0.0
2017-Feb-17 02:33N 40°39' W 074°07'0 0.0
2017-Feb-17 01:33N 40°39' W 074°07'0 0.0
2017-Feb-17 00:33N 40°39' W 074°07'3 3.2
2017-Feb-16 23:33N 40°37' W 074°03'4 4.2
2017-Feb-16 22:33N 40°33' W 074°02'6 5.5
2017-Feb-16 21:33N 40°30' W 073°56'6 6.3
2017-Feb-16 20:32N 40°24' W 073°54'37 7.3
2017-Feb-16 15:30N 39°47' W 074°01'7 7.6
2017-Feb-16 14:33N 39°40' W 074°04'10 7.9
2017-Feb-16 13:14N 39°31' W 074°10'54 5.1
2017-Feb-16 02:28N 39°08' W 075°14'8 8.4
2017-Feb-16 01:33N 39°15' W 075°19'1010.5
2017-Feb-16 00:33N 39°23' W 075°28'10 9.5
2017-Feb-15 23:33N 39°32' W 075°33'2 2.0
2017-Feb-15 22:33N 39°34' W 075°33'7 7.1
2017-Feb-15 21:34N 39°41' W 075°31'8 7.8
2017-Feb-15 20:33N 39°48' W 075°27'7 6.7
2017-Feb-15 19:33N 39°51' W 075°19'6 6.1
2017-Feb-15 18:33N 39°53' W 075°12'2 1.7
2017-Feb-15 17:34N 39°53' W 075°09'2 2.4
2017-Feb-15 16:34N 39°54' W 075°12'0 0.0
2017-Feb-15 15:33N 39°54' W 075°12'0 0.0
2017-Feb-15 14:34N 39°54' W 075°12'1 1.0
2017-Feb-15 13:33N 39°55' W 075°13'4 3.6
2017-Feb-15 12:33N 39°54' W 075°08'3 3.1
2017-Feb-15 11:33N 39°54' W 075°12'1 1.2
2017-Feb-15 10:34N 39°52' W 075°12'1 1.1
2017-Feb-15 09:31N 39°54' W 075°12'0 0.0
2017-Feb-15 08:31N 39°54' W 075°12'0 0.0
2017-Feb-15 07:32N 39°54' W 075°12'0 0.0
2017-Feb-15 06:33N 39°54' W 075°12'0 0.0
2017-Feb-15 05:33N 39°54' W 075°12'0 0.0
2017-Feb-15 04:31N 39°54' W 075°12'0 0.0
2017-Feb-15 03:29N 39°54' W 075°12'0 0.0
2017-Feb-15 02:32N 39°54' W 075°12'0 0.0
2017-Feb-15 01:33N 39°54' W 075°12'4 4.0
2017-Feb-15 00:33N 39°56' W 075°08'4 3.4
2017-Feb-14 23:31N 39°59' W 075°05'0 0.0
2017-Feb-14 22:32N 39°59' W 075°05'0 0.0
2017-Feb-14 21:33N 39°59' W 075°05'0 0.0
2017-Feb-14 20:33N 39°59' W 075°05'1 0.9
2017-Feb-14 19:33N 39°59' W 075°04'6 5.7
2017-Feb-14 18:33N 39°54' W 075°08'3 3.4
2017-Feb-14 17:33N 39°54' W 075°12'0 0.0
2017-Feb-14 16:32N 39°54' W 075°12'0 0.0
2017-Feb-14 15:30N 39°54' W 075°12'0 0.0
2017-Feb-14 14:33N 39°54' W 075°12'0 0.0
2017-Feb-14 13:34N 39°54' W 075°12'2 2.1
2017-Feb-14 12:34N 39°53' W 075°10'7 6.7
2017-Feb-14 11:34N 39°51' W 075°18'5 5.2
2017-Feb-14 10:34N 39°49' W 075°24'3 3.2
2017-Feb-14 09:34N 39°51' W 075°21'7 7.2
2017-Feb-14 08:34N 39°54' W 075°12'0 0.0
2017-Feb-14 07:33N 39°54' W 075°12'0 0.0
2017-Feb-14 06:33N 39°54' W 075°12'0 0.0
2017-Feb-14 05:31N 39°54' W 075°12'0 0.0
2017-Feb-14 04:32N 39°54' W 075°12'4 3.9
2017-Feb-14 03:33N 39°55' W 075°08'4 4.1
2017-Feb-14 02:33N 39°59' W 075°05'1 0.5
2017-Feb-14 01:33N 39°59' W 075°05'6 5.9
2017-Feb-14 00:33N 39°53' W 075°08'2 2.4
2017-Feb-13 23:32N 39°53' W 075°12'0 0.0
2017-Feb-13 22:33N 39°53' W 075°12'0 0.1
2017-Feb-13 21:33N 39°53' W 075°12'0 0.5
2017-Feb-13 20:33N 39°54' W 075°12'5 5.5
2017-Feb-13 19:33N 39°51' W 075°18'6 5.7
2017-Feb-13 18:34N 39°48' W 075°25'1 0.8
2017-Feb-13 17:33N 39°49' W 075°24'0 0.3
2017-Feb-13 16:34N 39°48' W 075°24'5 4.6
2017-Feb-13 15:33N 39°51' W 075°19'6 5.6
2017-Feb-13 14:34N 39°54' W 075°12'0 0.1
2017-Feb-13 13:33N 39°54' W 075°12'1 1.4
2017-Feb-13 12:33N 39°55' W 075°12'0 0.0
2017-Feb-13 11:31N 39°55' W 075°12'1 0.8
2017-Feb-13 10:31N 39°55' W 075°13'4 3.6
2017-Feb-13 09:31N 39°54' W 075°08'0 0.0
2017-Feb-13 08:33N 39°54' W 075°08'0 0.1
2017-Feb-13 07:30N 39°54' W 075°08'0 0.0
2017-Feb-13 06:34N 39°54' W 075°08'0 0.1
2017-Feb-13 05:33N 39°54' W 075°08'0 0.0
2017-Feb-13 04:31N 39°54' W 075°08'0 0.0
2017-Feb-13 03:31N 39°54' W 075°08'0 0.0
2017-Feb-13 02:32N 39°54' W 075°08'0 0.4
2017-Feb-13 01:33N 39°53' W 075°08'3 2.6
2017-Feb-13 00:34N 39°53' W 075°12'0 0.5
2017-Feb-12 23:33N 39°54' W 075°12'1 1.1
2017-Feb-12 22:33N 39°55' W 075°13'0 0.0
2017-Feb-12 21:28N 39°55' W 075°13'0 0.0
2017-Feb-12 20:31N 39°55' W 075°13'0 0.0
2017-Feb-12 19:32N 39°55' W 075°13'1 1.1
2017-Feb-12 18:32N 39°54' W 075°12'0 0.0
2017-Feb-12 17:33N 39°54' W 075°12'0 0.1
2017-Feb-12 16:34N 39°54' W 075°12'0 0.2
2017-Feb-12 15:33N 39°54' W 075°12'0 0.1
2017-Feb-12 14:34N 39°54' W 075°12'0 0.0
2017-Feb-12 13:31N 39°54' W 075°12'0 0.0
2017-Feb-12 12:29N 39°54' W 075°12'0 0.0
2017-Feb-12 11:33N 39°54' W 075°12'0 0.0
2017-Feb-12 10:30N 39°54' W 075°12'0 0.0
2017-Feb-12 09:31N 39°54' W 075°12'0 0.0
2017-Feb-12 08:32N 39°54' W 075°12'0 0.0
2017-Feb-12 07:32N 39°54' W 075°12'0 0.0
2017-Feb-12 06:33N 39°54' W 075°12'0 0.0
2017-Feb-12 05:31N 39°54' W 075°12'0 0.0
2017-Feb-12 04:31N 39°54' W 075°12'0 0.0
2017-Feb-12 03:29N 39°54' W 075°12'0 0.0
2017-Feb-12 02:33N 39°54' W 075°12'0 0.0
2017-Feb-12 01:30N 39°54' W 075°12'0 0.0
2017-Feb-12 00:25N 39°54' W 075°12'0 0.0
2017-Feb-11 23:29N 39°54' W 075°12'0 0.0
2017-Feb-11 22:32N 39°54' W 075°12'0 0.0
2017-Feb-11 21:30N 39°54' W 075°12'0 0.0
2017-Feb-11 20:28N 39°54' W 075°12'0 0.0
2017-Feb-11 19:31N 39°54' W 075°12'  

Dump ship's entire track history